LiveATC.Net - Listen to live air traffic control over the Internet!


ICAO: ENEG  IATA:   Airport: Eggemoen Airport
City: Honefoss
Country: Norway   Continent: Europe
ENGM METAR Weather: ENGM 051620Z 02006KT 9999 BKN033 M11/M13 Q1023 NOSIG
ENEG Flight Activity (FlightAware)

ENGM App/Polaris ACC
Feed Status: UP   Listeners: 3
Listen in your browser - HTML5 player (in browser, HTML5)
Click here to listen with your own player (launches your MP3 player)
Archive Access: ENGM App/Polaris ACC
FacilityFrequency
ENGM Approach (East)118.475
ENGM Approach (West)120.450
Polaris ACC Sector 4118.875
Polaris ACC Sector 7124.775
Polaris ACC Sector 8134.350

NOTICE

Unauthorized use prohibited. See LiveATC.net Terms of Service


Airport/ARTCC Code
Frequency Search
(e.g., 124.400, 128.75)
Site-wide search
 


Browse Feeds
Top 50 Feeds
HF Oceanic Feeds
Coverage Map
Bad Weather Areas

LiveATC FAQ
Offer LiveATC feed
Contact LiveATC.net
Press Inquiries

LiveATC on iPhone
LiveATC on Android

Windows Phone
Windows 8/10

LiveATC Mobile
(Mobile browser)

ATC Audio Archives
Interesting Recordings

LiveATC Forums


Home Page
About LiveATC.net
Make a Donation
Terms of Use
Privacy Policy

Canadian Air Freqs

AIRMETs/SIGMETs

FAA Airport Status
NAS Status
Arrival Demand


Server Software By:
Icecast.org
Liquidsoap